Time;durP1;ratioP1;P1;durP2;ratioP2;P2;SDS_P1;SDS_P2;PMS_P1;PMS_P2;Temp;Humidity;BMP_temperature;BMP_pressure;BME280_temperature;BME280_humidity;BME280_pressure;Samples;Min_cycle;Max_cycle;Signal;HPM_P1;HPM_P2
2023/07/06 00:01:00;;;;;;;3.73;2.40;;;14.30;6.80;;;;;;4993636;28;20421;-71
2023/07/06 00:03:25;;;;;;;2.43;2.00;;;14.20;7.30;;;;;;4993383;28;20458;-72
2023/07/06 00:05:51;;;;;;;4.23;2.30;;;14.20;7.50;;;;;;4993529;28;20435;-71
2023/07/06 00:08:17;;;;;;;3.80;2.73;;;14.20;7.70;;;;;;4993625;28;20197;-72
2023/07/06 00:10:44;;;;;;;3.53;2.50;;;14.20;7.70;;;;;;4993351;28;20209;-72
2023/07/06 00:13:11;;;;;;;2.63;1.90;;;14.20;8.10;;;;;;4992999;28;20224;-73
2023/07/06 00:15:37;;;;;;;2.73;2.10;;;14.20;7.90;;;;;;4993201;28;20513;-71
2023/07/06 00:18:04;;;;;;;3.40;2.40;;;14.20;8.10;;;;;;4993003;28;20430;-71
2023/07/06 00:20:35;;;;;;;3.10;2.33;;;14.10;8.00;;;;;;4997391;28;20429;-71
2023/07/06 00:23:01;;;;;;;3.13;2.33;;;14.10;8.00;;;;;;4992127;28;20897;-70
2023/07/06 00:25:27;;;;;;;7.00;2.60;;;14.10;7.70;;;;;;4995194;28;20437;-72
2023/07/06 00:27:58;;;;;;;2.50;1.53;;;14.10;8.00;;;;;;4993969;28;20551;-71
2023/07/06 00:30:54;;;;;;;2.43;1.67;;;14.10;8.00;;;;;;4993186;28;20185;-72
2023/07/06 00:33:23;;;;;;;4.00;2.20;;;14.10;8.00;;;;;;4992893;28;20507;-72
2023/07/06 00:35:49;;;;;;;3.10;2.10;;;14.00;7.90;;;;;;4992039;28;20470;-72
2023/07/06 00:38:23;;;;;;;2.80;1.80;;;14.00;8.00;;;;;;4994416;28;20417;-72
2023/07/06 00:40:52;;;;;;;2.90;2.20;;;14.00;8.00;;;;;;4993304;28;20501;-72
2023/07/06 00:43:23;;;;;;;4.63;1.80;;;14.00;8.00;;;;;;4992773;28;20446;-73
2023/07/06 00:45:55;;;;;;;3.90;2.90;;;14.00;8.00;;;;;;4997080;28;20439;-71
2023/07/06 00:48:26;;;;;;;3.80;2.63;;;13.90;8.20;;;;;;4997017;28;21044;-73
2023/07/06 00:50:55;;;;;;;3.40;2.10;;;13.90;8.00;;;;;;4998944;28;20426;-71
2023/07/06 00:53:26;;;;;;;3.00;1.70;;;13.90;7.90;;;;;;4996788;28;20995;-72
2023/07/06 00:55:54;;;;;;;4.57;2.37;;;14.00;8.00;;;;;;4998158;28;21006;-72
2023/07/06 00:58:28;;;;;;;3.17;2.27;;;14.00;8.00;;;;;;4998328;28;20781;-72
2023/07/06 01:00:58;;;;;;;4.73;1.80;;;14.00;7.80;;;;;;4997025;28;20415;-72
2023/07/06 01:03:23;;;;;;;3.13;1.87;;;14.00;7.90;;;;;;4997607;28;20498;-71
2023/07/06 01:05:52;;;;;;;2.93;2.20;;;13.90;7.90;;;;;;4996734;28;20425;-71
2023/07/06 01:08:20;;;;;;;5.93;2.37;;;14.00;8.00;;;;;;4997788;28;20177;-71
2023/07/06 01:10:48;;;;;;;3.87;2.07;;;13.90;7.90;;;;;;4998402;28;20866;-71
2023/07/06 01:13:14;;;;;;;3.27;1.90;;;13.80;8.10;;;;;;4996577;28;20436;-72
2023/07/06 01:16:00;;;;;;;4.03;2.30;;;13.70;9.00;;;;;;4998132;28;20466;-71
2023/07/06 01:19:03;;;;;;;3.20;2.13;;;13.70;8.90;;;;;;4997157;28;20532;-71
2023/07/06 01:21:48;;;;;;;3.40;2.43;;;13.70;9.10;;;;;;4956362;28;20423;-71
2023/07/06 01:24:47;;;;;;;3.60;2.83;;;13.70;9.20;;;;;;4997107;28;20434;-71
2023/07/06 01:27:51;;;;;;;2.50;1.50;;;13.60;9.00;;;;;;4998455;28;20429;-71
2023/07/06 01:30:41;;;;;;;3.40;2.00;;;13.50;10.00;;;;;;4996880;28;20417;-71
2023/07/06 01:33:36;;;;;;;4.03;2.03;;;13.50;9.50;;;;;;4998418;28;20442;-71
2023/07/06 01:36:08;;;;;;;7.90;2.00;;;13.50;10.10;;;;;;4996455;28;20472;-71
2023/07/06 01:38:34;;;;;;;3.40;2.77;;;13.50;10.30;;;;;;4997391;28;20424;-71
2023/07/06 01:41:00;;;;;;;3.30;2.33;;;13.50;10.50;;;;;;4997411;28;20422;-71
2023/07/06 01:43:27;;;;;;;3.43;1.70;;;13.50;10.10;;;;;;4998100;28;20469;-72
2023/07/06 01:45:53;;;;;;;2.90;1.97;;;13.50;10.50;;;;;;4998389;28;20211;-71
2023/07/06 01:48:20;;;;;;;3.17;2.27;;;13.50;10.30;;;;;;4998689;28;20786;-70
2023/07/06 01:51:09;;;;;;;5.27;2.40;;;13.50;10.40;;;;;;4998501;28;20440;-70
2023/07/06 01:53:40;;;;;;;2.67;1.80;;;13.50;10.40;;;;;;4996253;28;20866;-71
2023/07/06 01:56:29;;;;;;;3.80;2.13;;;13.50;10.40;;;;;;4997409;28;21047;-71
2023/07/06 01:59:05;;;;;;;3.60;2.30;;;13.40;10.10;;;;;;4995551;28;20429;-71
2023/07/06 02:01:39;;;;;;;2.97;2.20;;;13.40;10.10;;;;;;4997289;28;20793;-71
2023/07/06 02:04:07;;;;;;;3.83;1.90;;;13.40;10.40;;;;;;4996212;28;20456;-71
2023/07/06 02:06:33;;;;;;;3.70;2.30;;;13.30;10.30;;;;;;4997039;28;20432;-70
2023/07/06 02:08:59;;;;;;;3.70;2.17;;;13.20;11.20;;;;;;4994747;28;20774;-71
2023/07/06 02:11:24;;;;;;;7.07;1.97;;;13.20;11.90;;;;;;4995668;28;20427;-73
2023/07/06 02:13:51;;;;;;;3.43;2.10;;;13.20;11.40;;;;;;4995276;28;20196;-71
2023/07/06 02:16:16;;;;;;;3.53;2.30;;;13.20;11.90;;;;;;4996421;28;20217;-71
2023/07/06 02:18:43;;;;;;;3.40;2.00;;;13.20;11.30;;;;;;4996033;28;20446;-72
2023/07/06 02:21:09;;;;;;;2.90;2.13;;;13.10;11.80;;;;;;4995188;28;20194;-70
2023/07/06 02:23:36;;;;;;;4.63;2.60;;;13.10;11.80;;;;;;4994982;28;20435;-70
2023/07/06 02:26:02;;;;;;;4.23;2.60;;;13.10;12.10;;;;;;4996084;28;20411;-70
2023/07/06 02:28:28;;;;;;;4.03;2.30;;;13.10;11.80;;;;;;4995141;28;20524;-70
2023/07/06 02:30:53;;;;;;;7.30;2.17;;;13.00;12.60;;;;;;4995019;28;20443;-70
2023/07/06 02:33:19;;;;;;;6.17;2.50;;;13.00;12.90;;;;;;4996079;28;20799;-72
2023/07/06 02:35:48;;;;;;;3.00;2.03;;;12.90;13.70;;;;;;4994894;28;20295;-70
2023/07/06 02:38:16;;;;;;;3.10;1.70;;;12.90;14.20;;;;;;4995069;28;20173;-70
2023/07/06 02:40:42;;;;;;;4.83;2.07;;;12.80;14.90;;;;;;4994950;28;20479;-69
2023/07/06 02:43:08;;;;;;;3.90;2.17;;;12.80;14.60;;;;;;4995795;28;20438;-70
2023/07/06 02:45:35;;;;;;;3.50;1.73;;;12.70;15.90;;;;;;4993666;28;20870;-70
2023/07/06 02:48:01;;;;;;;6.23;1.97;;;12.70;15.90;;;;;;4996489;28;20193;-70
2023/07/06 02:50:27;;;;;;;4.00;2.47;;;12.60;15.80;;;;;;4995276;28;20511;-70
2023/07/06 02:52:53;;;;;;;4.43;2.17;;;12.50;15.80;;;;;;4995125;28;20267;-70
2023/07/06 02:55:19;;;;;;;3.90;2.13;;;12.50;15.80;;;;;;4995668;28;20542;-70
2023/07/06 02:57:44;;;;;;;4.80;2.23;;;12.40;15.70;;;;;;4995235;28;20182;-71
2023/07/06 03:00:16;;;;;;;3.60;2.50;;;12.40;16.60;;;;;;4995336;28;20619;-72
2023/07/06 03:02:48;;;;;;;2.73;1.80;;;12.40;16.90;;;;;;4994577;28;20295;-70
2023/07/06 03:05:23;;;;;;;3.33;2.63;;;12.30;18.20;;;;;;4994939;28;20431;-70
2023/07/06 03:07:54;;;;;;;3.53;2.10;;;12.30;19.00;;;;;;4994354;28;20939;-71
2023/07/06 03:10:22;;;;;;;5.23;2.30;;;12.30;19.20;;;;;;4993792;28;20651;-70
2023/07/06 03:12:48;;;;;;;3.77;2.10;;;12.30;19.30;;;;;;4994383;28;20443;-70
2023/07/06 03:15:15;;;;;;;3.23;2.00;;;12.30;19.50;;;;;;4994721;28;20874;-70
2023/07/06 03:17:50;;;;;;;5.40;3.03;;;12.30;19.90;;;;;;4994639;28;20502;-71
2023/07/06 03:20:21;;;;;;;3.37;1.93;;;12.20;21.20;;;;;;4993555;28;20523;-70
2023/07/06 03:22:51;;;;;;;4.27;2.87;;;12.20;20.40;;;;;;4994571;28;20929;-70
2023/07/06 03:25:35;;;;;;;3.73;2.43;;;12.20;21.10;;;;;;4995016;28;20423;-71
2023/07/06 03:28:00;;;;;;;4.10;2.43;;;12.10;21.00;;;;;;4994807;28;20468;-70
2023/07/06 03:30:28;;;;;;;3.77;2.60;;;12.10;21.00;;;;;;4993701;28;20522;-71
2023/07/06 03:32:54;;;;;;;3.37;2.43;;;12.10;20.40;;;;;;4993841;28;20188;-71
2023/07/06 03:35:22;;;;;;;5.00;3.00;;;12.10;21.30;;;;;;4993985;28;20479;-70
2023/07/06 03:37:48;;;;;;;3.70;2.90;;;12.00;21.40;;;;;;4995451;28;20455;-70
2023/07/06 03:40:14;;;;;;;5.43;3.23;;;12.00;22.60;;;;;;4992751;28;20858;-71
2023/07/06 03:42:48;;;;;;;3.37;2.23;;;12.00;21.80;;;;;;4995011;28;20834;-71
2023/07/06 03:45:16;;;;;;;4.50;2.77;;;12.00;20.80;;;;;;4995627;28;20419;-70
2023/07/06 03:47:43;;;;;;;5.37;2.87;;;12.10;20.60;;;;;;4996367;28;20424;-71
2023/07/06 03:50:12;;;;;;;3.60;2.07;;;12.10;20.70;;;;;;4995438;28;20411;-71
2023/07/06 03:52:38;;;;;;;4.40;2.80;;;12.10;20.10;;;;;;4992925;28;20434;-72
2023/07/06 03:55:15;;;;;;;3.30;1.80;;;12.20;19.70;;;;;;4995313;28;20416;-71
2023/07/06 03:57:43;;;;;;;4.90;2.67;;;12.20;18.90;;;;;;4994043;28;20430;-71
2023/07/06 04:00:16;;;;;;;4.50;2.20;;;12.30;19.00;;;;;;4995127;28;20790;-70
2023/07/06 04:02:42;;;;;;;4.20;2.43;;;12.30;18.30;;;;;;4994293;28;20495;-71
2023/07/06 04:05:08;;;;;;;3.40;2.70;;;12.40;17.50;;;;;;4993717;28;20455;-71
2023/07/06 04:07:34;;;;;;;3.73;2.13;;;12.40;17.40;;;;;;4994169;28;20723;-70
2023/07/06 04:10:00;;;;;;;6.90;2.70;;;12.40;17.50;;;;;;4993548;28;20511;-70
2023/07/06 04:12:26;;;;;;;4.17;2.40;;;12.50;17.10;;;;;;4994434;28;20177;-71
2023/07/06 04:14:54;;;;;;;3.53;2.27;;;12.50;17.10;;;;;;4992912;28;20431;-70
2023/07/06 04:17:20;;;;;;;5.43;2.47;;;12.60;17.10;;;;;;4993937;28;20169;-70
2023/07/06 04:19:50;;;;;;;4.30;3.30;;;12.60;16.90;;;;;;4994253;28;20420;-70
2023/07/06 04:22:18;;;;;;;4.43;2.47;;;12.50;17.30;;;;;;4991791;28;20191;-70
2023/07/06 04:24:43;;;;;;;3.60;2.00;;;12.50;17.20;;;;;;4995388;28;20507;-70
2023/07/06 04:27:09;;;;;;;4.40;2.40;;;12.60;17.70;;;;;;4995007;28;20459;-72
2023/07/06 04:29:35;;;;;;;4.47;3.37;;;12.60;17.90;;;;;;4995224;28;20713;-72
2023/07/06 04:32:01;;;;;;;3.90;2.30;;;12.60;18.20;;;;;;4993239;28;20183;-74
2023/07/06 04:34:27;;;;;;;3.77;2.50;;;12.70;17.80;;;;;;4994731;28;20635;-74
2023/07/06 04:36:52;;;;;;;4.20;2.30;;;12.70;17.70;;;;;;4994669;28;20236;-73
2023/07/06 04:39:18;;;;;;;4.97;2.77;;;12.70;16.90;;;;;;4994588;28;20416;-72
2023/07/06 04:41:44;;;;;;;4.17;2.27;;;12.80;16.00;;;;;;4992980;28;20521;-72
2023/07/06 04:44:11;;;;;;;3.83;2.13;;;12.80;15.70;;;;;;4993821;28;20207;-72
2023/07/06 04:46:37;;;;;;;4.87;2.60;;;12.90;16.10;;;;;;4994259;28;20548;-72
2023/07/06 04:49:03;;;;;;;3.23;2.73;;;12.90;16.10;;;;;;4993936;28;20789;-72
2023/07/06 04:51:29;;;;;;;4.83;2.90;;;12.90;16.10;;;;;;4993758;28;20825;-72
2023/07/06 04:53:54;;;;;;;3.60;1.93;;;13.00;15.00;;;;;;4994548;28;20478;-72
2023/07/06 04:56:21;;;;;;;4.60;3.10;;;13.10;14.10;;;;;;4994539;28;20662;-72
2023/07/06 04:58:47;;;;;;;4.67;3.30;;;13.20;13.80;;;;;;4997197;28;20177;-73
2023/07/06 05:01:14;;;;;;;3.37;2.40;;;13.30;13.80;;;;;;4994342;28;20503;-72
2023/07/06 05:03:41;;;;;;;4.13;2.57;;;13.30;13.90;;;;;;4993073;28;20451;-71
2023/07/06 05:06:12;;;;;;;4.40;2.70;;;13.20;14.80;;;;;;4993271;28;20449;-71
2023/07/06 05:08:39;;;;;;;4.10;3.33;;;13.20;14.70;;;;;;4992799;28;20508;-71
2023/07/06 05:11:05;;;;;;;5.07;2.93;;;13.30;14.20;;;;;;4992684;28;20413;-71
2023/07/06 05:13:31;;;;;;;2.80;2.47;;;13.40;13.70;;;;;;4993458;28;20493;-70
2023/07/06 05:15:57;;;;;;;2.73;1.77;;;13.50;13.60;;;;;;4995108;28;20561;-69
2023/07/06 05:18:23;;;;;;;4.40;2.23;;;13.70;12.20;;;;;;4994595;28;20473;-69
2023/07/06 05:20:50;;;;;;;4.30;2.50;;;13.90;11.50;;;;;;4995116;28;20424;-70
2023/07/06 05:23:22;;;;;;;7.07;3.07;;;14.10;9.60;;;;;;4994361;28;20439;-69
2023/07/06 05:25:51;;;;;;;3.57;2.33;;;14.30;10.40;;;;;;4993408;28;20962;-68
2023/07/06 05:28:19;;;;;;;2.93;2.00;;;14.40;10.00;;;;;;4991987;28;20494;-70
2023/07/06 05:30:48;;;;;;;4.90;2.97;;;14.60;11.20;;;;;;4994639;28;20413;-73
2023/07/06 05:33:14;;;;;;;3.57;2.17;;;14.70;11.90;;;;;;4998574;28;20437;-72
2023/07/06 05:35:41;;;;;;;4.83;2.70;;;14.90;10.70;;;;;;4997325;28;20455;-71
2023/07/06 05:38:10;;;;;;;5.00;2.50;;;15.10;17.60;;;;;;4998264;28;20925;-71
2023/07/06 05:40:42;;;;;;;4.37;2.60;;;15.40;17.30;;;;;;4997010;28;20505;-74
2023/07/06 05:43:09;;;;;;;5.47;2.80;;;16.30;17.90;;;;;;4996174;28;20436;-72
2023/07/06 05:45:35;;;;;;;3.77;2.80;;;18.80;11.30;;;;;;4996023;28;20499;-72
2023/07/06 05:48:01;;;;;;;3.40;3.10;;;21.90;3.00;;;;;;4998228;28;20442;-73
2023/07/06 05:50:27;;;;;;;4.87;3.70;;;25.00;1.00;;;;;;4995921;28;20237;-71
2023/07/06 05:52:53;;;;;;;5.47;3.90;;;27.30;1.00;;;;;;4995500;28;20420;-73
2023/07/06 05:55:18;;;;;;;4.50;4.10;;;29.60;1.00;;;;;;4995748;28;20205;-71
2023/07/06 05:57:45;;;;;;;3.90;3.60;;;31.40;1.00;;;;;;4994417;28;20185;-71
2023/07/06 06:00:11;;;;;;;7.07;5.00;;;32.30;1.00;;;;;;4994440;28;20184;-71
2023/07/06 06:02:39;;;;;;;5.63;5.13;;;30.80;1.00;;;;;;4995277;28;20415;-73
2023/07/06 06:05:05;;;;;;;4.33;3.93;;;31.10;1.00;;;;;;4996108;28;20420;-71
2023/07/06 06:07:33;;;;;;;4.70;4.30;;;33.40;1.00;;;;;;4997868;28;20419;-73
2023/07/06 06:09:59;;;;;;;4.53;4.23;;;34.20;1.00;;;;;;4996592;28;20407;-72
2023/07/06 06:12:27;;;;;;;6.20;5.60;;;34.30;1.00;;;;;;4998320;28;20423;-71
2023/07/06 06:14:53;;;;;;;4.90;4.50;;;34.50;1.00;;;;;;4997824;28;20424;-71
2023/07/06 06:17:22;;;;;;;5.47;5.07;;;35.70;1.00;;;;;;4995681;28;20457;-72
2023/07/06 06:19:48;;;;;;;5.97;4.97;;;36.60;1.00;;;;;;4995889;28;20669;-70
2023/07/06 06:22:16;;;;;;;5.50;5.00;;;36.50;1.00;;;;;;4997150;28;20403;-74
2023/07/06 06:24:42;;;;;;;4.97;4.63;;;36.20;1.00;;;;;;4996551;28;20228;-71
2023/07/06 06:27:11;;;;;;;4.90;4.50;;;35.50;1.00;;;;;;4996247;28;20467;-72
2023/07/06 06:29:37;;;;;;;5.77;4.73;;;33.70;1.00;;;;;;4999362;28;20489;-71
2023/07/06 06:32:03;;;;;;;4.67;4.37;;;33.10;1.00;;;;;;4997092;28;20407;-71
2023/07/06 06:34:29;;;;;;;5.57;5.03;;;33.30;1.00;;;;;;4994177;28;20814;-72
2023/07/06 06:36:55;;;;;;;4.60;4.30;;;34.30;1.00;;;;;;4996757;28;20461;-72
2023/07/06 06:39:21;;;;;;;4.70;4.40;;;33.20;1.00;;;;;;4993726;28;20172;-71
2023/07/06 06:41:47;;;;;;;5.20;4.70;;;33.30;1.00;;;;;;4993985;28;20422;-72
2023/07/06 06:44:13;;;;;;;4.80;4.40;;;33.30;1.00;;;;;;4996908;28;20490;-71
2023/07/06 06:46:38;;;;;;;5.10;4.70;;;33.50;1.00;;;;;;4999627;28;20176;-72
2023/07/06 06:49:04;;;;;;;4.40;4.10;;;33.40;1.00;;;;;;4995282;28;20183;-71
2023/07/06 06:51:29;;;;;;;4.67;4.37;;;33.70;1.00;;;;;;4994879;28;20234;-71
2023/07/06 06:53:55;;;;;;;4.90;4.60;;;33.10;1.00;;;;;;4996542;28;20200;-71
2023/07/06 06:56:24;;;;;;;4.97;4.57;;;34.40;1.00;;;;;;4994463;28;20743;-71
2023/07/06 06:58:51;;;;;;;5.63;4.60;;;35.70;1.00;;;;;;4994517;28;20259;-71
2023/07/06 07:01:17;;;;;;;5.27;4.77;;;35.50;1.00;;;;;;4994828;28;20407;-71
2023/07/06 07:03:45;;;;;;;5.27;4.73;;;35.90;1.00;;;;;;4994927;28;20540;-72
2023/07/06 07:06:12;;;;;;;5.97;4.70;;;35.80;1.00;;;;;;4995867;28;20944;-71
2023/07/06 07:08:47;;;;;;;4.50;4.10;;;34.40;1.00;;;;;;4994291;28;20424;-72
2023/07/06 07:11:13;;;;;;;5.00;4.60;;;34.40;1.00;;;;;;4977156;28;20453;-72
2023/07/06 07:13:40;;;;;;;6.60;5.50;;;33.20;1.00;;;;;;4993854;28;20522;-71
2023/07/06 07:16:11;;;;;;;4.97;4.67;;;32.00;1.00;;;;;;4995039;28;20212;-71
2023/07/06 07:18:38;;;;;;;6.23;5.80;;;30.50;1.00;;;;;;4996284;28;20400;-70
2023/07/06 07:21:07;;;;;;;4.73;4.33;;;31.20;1.00;;;;;;4994404;28;20434;-71
2023/07/06 07:23:41;;;;;;;6.67;5.27;;;34.60;1.00;;;;;;4994422;28;20925;-71
2023/07/06 07:26:12;;;;;;;4.27;3.97;;;33.30;1.00;;;;;;4995138;28;20481;-72
2023/07/06 07:28:37;;;;;;;6.50;5.10;;;34.40;1.00;;;;;;4995606;28;20458;-72
2023/07/06 07:31:03;;;;;;;5.70;4.63;;;35.20;1.00;;;;;;4995027;28;20815;-73
2023/07/06 07:33:29;;;;;;;5.10;4.70;;;35.90;1.00;;;;;;4994804;28;20208;-72
2023/07/06 07:36:00;;;;;;;5.00;4.60;;;36.10;1.00;;;;;;4995331;28;20451;-72
2023/07/06 07:38:26;;;;;;;4.73;4.30;;;34.40;1.00;;;;;;4997059;28;20620;-73
2023/07/06 07:40:57;;;;;;;4.97;4.57;;;34.60;1.00;;;;;;4992798;28;20588;-72
2023/07/06 07:43:32;;;;;;;4.67;4.30;;;36.70;1.00;;;;;;4995970;28;20192;-72
2023/07/06 07:46:00;;;;;;;6.23;4.67;;;37.40;1.00;;;;;;4994850;28;20419;-72
2023/07/06 07:48:27;;;;;;;7.43;4.60;;;37.40;1.00;;;;;;4994171;28;20423;-74
2023/07/06 07:50:56;;;;;;;5.47;4.50;;;38.40;1.00;;;;;;4993895;28;20936;-71
2023/07/06 07:53:24;;;;;;;5.30;4.90;;;37.40;1.00;;;;;;4993413;28;20470;-71
2023/07/06 07:55:53;;;;;;;10.73;4.70;;;36.40;1.00;;;;;;4994756;28;20454;-73
2023/07/06 07:58:18;;;;;;;6.80;3.80;;;36.80;1.00;;;;;;4993700;28;20427;-73
2023/07/06 08:00:51;;;;;;;9.23;4.27;;;36.90;1.00;;;;;;4993108;28;20944;-72
2023/07/06 08:03:17;;;;;;;5.70;5.23;;;36.70;1.00;;;;;;4992327;28;20208;-73
2023/07/06 08:05:43;;;;;;;18.90;7.30;;;37.10;1.00;;;;;;4993719;28;20427;-73
2023/07/06 08:08:11;;;;;;;5.87;5.17;;;36.80;1.00;;;;;;4994337;28;20191;-74
2023/07/06 08:10:40;;;;;;;4.17;3.87;;;37.00;1.00;;;;;;4996866;28;20416;-73
2023/07/06 08:13:09;;;;;;;15.53;6.90;;;37.50;1.00;;;;;;4992867;28;20544;-73
2023/07/06 08:15:37;;;;;;;10.20;4.87;;;38.10;1.00;;;;;;4993438;28;20478;-73
2023/07/06 08:18:03;;;;;;;5.63;5.23;;;37.50;1.00;;;;;;4996467;28;20442;-72
2023/07/06 08:20:29;;;;;;;5.00;4.60;;;38.40;1.00;;;;;;4997769;28;20428;-73
2023/07/06 08:22:59;;;;;;;4.70;4.40;;;37.60;1.00;;;;;;4993248;28;22011;-72
2023/07/06 08:25:27;;;;;;;4.53;4.13;;;37.80;1.00;;;;;;4992015;28;20462;-73
2023/07/06 08:27:54;;;;;;;5.30;4.63;;;38.60;1.00;;;;;;4993498;28;20427;-73
2023/07/06 08:30:22;;;;;;;5.80;4.87;;;38.50;1.00;;;;;;4994542;28;20427;-74
2023/07/06 08:32:49;;;;;;;4.70;4.30;;;37.90;1.00;;;;;;4997154;28;20507;-73
2023/07/06 08:35:18;;;;;;;4.80;4.43;;;38.10;1.00;;;;;;4995756;28;20424;-73
2023/07/06 08:37:45;;;;;;;5.77;5.17;;;38.70;1.00;;;;;;4997530;28;20524;-73
2023/07/06 08:40:17;;;;;;;4.60;4.30;;;39.30;1.00;;;;;;4994700;28;20419;-73
2023/07/06 08:42:46;;;;;;;5.80;4.53;;;38.20;1.00;;;;;;4993858;28;20427;-73
2023/07/06 08:45:21;;;;;;;4.57;4.17;;;36.50;1.00;;;;;;4993811;28;20473;-73
2023/07/06 08:47:47;;;;;;;4.90;4.50;;;36.70;1.00;;;;;;4993760;28;20819;-73
2023/07/06 08:50:15;;;;;;;4.60;4.20;;;37.00;1.00;;;;;;4992900;28;20423;-74
2023/07/06 08:52:42;;;;;;;4.40;4.10;;;37.70;1.00;;;;;;4992445;28;20419;-74
2023/07/06 08:55:16;;;;;;;4.87;4.37;;;38.70;1.00;;;;;;4992700;28;20416;-74
2023/07/06 08:57:46;;;;;;;5.80;4.30;;;38.80;1.00;;;;;;4993025;28;20424;-74
2023/07/06 09:00:25;;;;;;;4.07;3.77;;;37.30;1.00;;;;;;4992796;28;20412;-74
2023/07/06 09:03:10;;;;;;;5.60;4.00;;;36.40;1.00;;;;;;4998036;28;20415;-73
2023/07/06 09:05:41;;;;;;;4.90;4.43;;;36.80;1.00;;;;;;4998776;28;20494;-74
2023/07/06 09:08:11;;;;;;;4.87;4.43;;;37.10;1.00;;;;;;4996547;28;20415;-74
2023/07/06 09:10:38;;;;;;;4.50;4.20;;;37.60;1.00;;;;;;4996625;28;20507;-73
2023/07/06 09:13:24;;;;;;;4.97;4.67;;;38.90;1.00;;;;;;4996288;28;20451;-74
2023/07/06 09:15:57;;;;;;;4.70;4.40;;;38.90;1.00;;;;;;4996635;28;20578;-74
2023/07/06 09:18:23;;;;;;;6.70;5.63;;;38.90;1.00;;;;;;4995280;28;20893;-73
2023/07/06 09:20:49;;;;;;;6.00;5.53;;;36.10;1.00;;;;;;4998815;28;20414;-73
2023/07/06 09:23:16;;;;;;;4.60;4.30;;;34.00;1.00;;;;;;5001013;28;20224;-72
2023/07/06 09:25:45;;;;;;;5.10;4.70;;;31.10;1.00;;;;;;4996697;28;20212;-73
2023/07/06 09:28:18;;;;;;;5.10;4.60;;;29.30;1.00;;;;;;4999230;28;20973;-72
2023/07/06 09:30:45;;;;;;;4.73;4.43;;;27.50;1.00;;;;;;4997126;28;20798;-73
2023/07/06 09:33:31;;;;;;;4.50;4.10;;;26.70;1.00;;;;;;4997238;28;20463;-73
2023/07/06 09:35:57;;;;;;;10.10;4.50;;;26.40;1.00;;;;;;4997150;28;20575;-73
2023/07/06 09:38:25;;;;;;;5.20;4.70;;;25.90;1.00;;;;;;4996310;28;20470;-73
2023/07/06 09:40:52;;;;;;;4.50;4.20;;;25.70;1.00;;;;;;4996302;28;20420;-74
2023/07/06 09:43:26;;;;;;;5.10;4.70;;;25.70;1.00;;;;;;4996387;28;20454;-74
2023/07/06 09:45:53;;;;;;;5.23;4.77;;;25.70;1.00;;;;;;4997258;28;20489;-73
2023/07/06 09:48:26;;;;;;;4.70;4.30;;;25.70;1.00;;;;;;4999292;28;20416;-74
2023/07/06 09:50:58;;;;;;;4.47;4.03;;;25.60;1.00;;;;;;4996107;28;20534;-73
2023/07/06 09:53:48;;;;;;;4.90;4.50;;;25.40;1.00;;;;;;4996052;28;20432;-73
2023/07/06 09:56:15;;;;;;;4.80;4.50;;;25.30;1.00;;;;;;4996901;28;20835;-72
2023/07/06 09:58:41;;;;;;;5.47;4.97;;;25.30;1.00;;;;;;4997900;28;20420;-72
2023/07/06 10:01:42;;;;;;;4.47;4.17;;;25.40;1.00;;;;;;4996018;28;20466;-72
2023/07/06 10:04:48;;;;;;;5.83;5.33;;;25.50;1.00;;;;;;4978925;28;20666;-73
2023/07/06 10:07:23;;;;;;;5.43;5.03;;;25.70;1.00;;;;;;4951320;28;20789;-73
2023/07/06 10:10:14;;;;;;;4.87;4.47;;;25.80;1.00;;;;;;4994893;28;20501;-74
2023/07/06 10:12:58;;;;;;;5.03;4.63;;;25.70;1.00;;;;;;4995880;28;20415;-73
2023/07/06 10:15:40;;;;;;;4.33;4.03;;;25.80;1.00;;;;;;4995834;28;20822;-74
2023/07/06 10:18:11;;;;;;;5.20;4.80;;;26.00;1.00;;;;;;4995279;28;20852;-74
2023/07/06 10:20:51;;;;;;;4.40;4.10;;;25.90;1.00;;;;;;4999316;28;20415;-73
2023/07/06 10:23:47;;;;;;;5.57;5.17;;;26.20;1.00;;;;;;4995744;28;20449;-74
2023/07/06 10:26:28;;;;;;;4.60;4.20;;;26.40;1.00;;;;;;4982429;28;20435;-72
2023/07/06 10:29:11;;;;;;;5.30;4.90;;;26.60;1.00;;;;;;4996210;28;20507;-72
2023/07/06 10:31:46;;;;;;;4.40;4.00;;;27.00;1.00;;;;;;4994887;28;20454;-73
2023/07/06 10:34:22;;;;;;;5.23;4.83;;;27.00;1.00;;;;;;4995308;28;20574;-73
2023/07/06 10:36:49;;;;;;;5.03;4.63;;;26.40;1.00;;;;;;4999339;28;20501;-73
2023/07/06 10:39:24;;;;;;;4.60;4.20;;;25.80;1.00;;;;;;5000061;28;20424;-72
2023/07/06 10:42:09;;;;;;;4.87;4.47;;;25.40;1.00;;;;;;5000842;28;20493;-72
2023/07/06 10:44:40;;;;;;;5.10;4.70;;;25.40;1.00;;;;;;4998194;28;20451;-73
2023/07/06 10:47:07;;;;;;;5.67;5.17;;;25.40;1.00;;;;;;4998611;28;20411;-73
2023/07/06 10:50:07;;;;;;;4.73;4.43;;;25.50;1.00;;;;;;4995582;28;20420;-73
2023/07/06 10:52:37;;;;;;;4.30;3.97;;;25.60;1.00;;;;;;4996297;28;20511;-73
2023/07/06 10:55:36;;;;;;;5.37;5.00;;;25.60;1.00;;;;;;4994864;28;20746;-72
2023/07/06 10:58:30;;;;;;;5.60;5.00;;;25.80;1.00;;;;;;4990971;28;20436;-72
2023/07/06 11:00:58;;;;;;;5.60;5.20;;;26.00;1.00;;;;;;4997830;28;20419;-73
2023/07/06 11:03:31;;;;;;;4.37;4.07;;;25.80;1.00;;;;;;4998235;28;20451;-73
2023/07/06 11:06:10;;;;;;;6.50;4.73;;;25.90;1.00;;;;;;4996147;28;20452;-73
2023/07/06 11:09:09;;;;;;;6.13;5.63;;;26.10;1.00;;;;;;4998311;28;20411;-72
2023/07/06 11:11:59;;;;;;;7.10;4.60;;;26.40;1.00;;;;;;4995302;28;20972;-73
2023/07/06 11:14:31;;;;;;;5.43;5.00;;;26.60;1.00;;;;;;4996628;28;20452;-73
2023/07/06 11:17:04;;;;;;;5.30;4.80;;;26.90;1.00;;;;;;4993311;28;20455;-73
2023/07/06 11:19:34;;;;;;;6.03;5.33;;;26.70;1.00;;;;;;4996063;28;20522;-72
2023/07/06 11:22:05;;;;;;;6.83;4.43;;;26.30;1.00;;;;;;4995405;28;20416;-73
2023/07/06 11:24:38;;;;;;;5.93;5.40;;;26.00;1.00;;;;;;4996182;28;20988;-73
2023/07/06 11:27:22;;;;;;;6.07;5.47;;;25.80;1.00;;;;;;4993896;28;20779;-73
2023/07/06 11:29:48;;;;;;;4.90;4.50;;;25.30;1.00;;;;;;4996044;28;20416;-72
2023/07/06 11:32:14;;;;;;;5.63;5.23;;;24.80;1.00;;;;;;4994667;28;20426;-72
2023/07/06 11:34:57;;;;;;;5.43;5.00;;;24.60;1.00;;;;;;4995003;28;20522;-73
2023/07/06 11:38:00;;;;;;;6.03;5.43;;;24.70;1.00;;;;;;4994052;28;20211;-73
2023/07/06 11:40:34;;;;;;;5.30;4.87;;;25.00;1.00;;;;;;4994393;28;20407;-73
2023/07/06 11:43:05;;;;;;;5.30;4.90;;;25.10;1.00;;;;;;4992920;28;20964;-73
2023/07/06 11:45:48;;;;;;;5.60;5.20;;;25.10;1.00;;;;;;4994311;28;20813;-72
2023/07/06 11:48:26;;;;;;;5.83;5.33;;;25.30;1.00;;;;;;4995022;28;20478;-73
2023/07/06 11:50:54;;;;;;;5.20;4.80;;;25.30;1.00;;;;;;4998045;28;20438;-73
2023/07/06 11:53:32;;;;;;;5.60;5.20;;;25.40;1.00;;;;;;4994182;28;20483;-73
2023/07/06 11:56:18;;;;;;;5.43;5.00;;;25.70;1.00;;;;;;4994501;28;20918;-73
2023/07/06 12:04:14;;;;;;;6.23;5.63;;;25.90;1.00;;;;;;4980638;28;20804;-74
2023/07/06 12:06:40;;;;;;;5.40;5.00;;;26.00;1.00;;;;;;4994087;28;20426;-74
2023/07/06 12:09:08;;;;;;;8.13;5.23;;;26.00;1.00;;;;;;4993105;28;20519;-74
2023/07/06 12:11:37;;;;;;;5.97;5.37;;;26.10;1.00;;;;;;4993812;28;20181;-74
2023/07/06 12:14:05;;;;;;;5.93;5.43;;;26.10;1.00;;;;;;4993860;28;20450;-74
2023/07/06 12:16:40;;;;;;;5.30;4.90;;;26.00;1.00;;;;;;4994637;28;20505;-74
2023/07/06 12:19:10;;;;;;;5.93;5.33;;;26.00;1.00;;;;;;4998917;28;20904;-74
2023/07/06 12:21:43;;;;;;;5.40;5.00;;;26.20;1.00;;;;;;4997821;28;20925;-73
2023/07/06 12:24:15;;;;;;;5.10;4.70;;;26.20;1.00;;;;;;4994357;28;20431;-74
2023/07/06 12:26:50;;;;;;;4.90;4.60;;;26.30;1.00;;;;;;4994208;28;20416;-74
2023/07/06 12:29:17;;;;;;;5.83;5.37;;;26.10;1.00;;;;;;4994489;28;20498;-77
2023/07/06 12:31:44;;;;;;;5.80;5.30;;;25.80;1.00;;;;;;4995514;28;20415;-73
2023/07/06 12:34:16;;;;;;;4.40;4.10;;;25.70;1.00;;;;;;4997105;28;20599;-73
2023/07/06 12:36:43;;;;;;;4.83;4.43;;;25.90;1.00;;;;;;4993618;28;20533;-73
2023/07/06 12:39:14;;;;;;;5.47;5.07;;;25.70;1.00;;;;;;4994019;28;20412;-74
2023/07/06 12:41:40;;;;;;;4.97;4.57;;;25.90;1.00;;;;;;4998293;28;20412;-74
2023/07/06 12:44:17;;;;;;;7.83;6.03;;;26.10;1.00;;;;;;4998485;28;20424;-74
2023/07/06 12:46:48;;;;;;;5.60;5.20;;;25.80;1.00;;;;;;4998719;28;20238;-73
2023/07/06 12:49:20;;;;;;;5.53;5.07;;;25.80;1.00;;;;;;5000172;28;20967;-74
2023/07/06 12:51:47;;;;;;;5.23;4.73;;;26.00;1.00;;;;;;4997563;28;20988;-74
2023/07/06 12:54:12;;;;;;;4.97;4.60;;;26.10;1.00;;;;;;4997795;28;20436;-74
2023/07/06 12:56:39;;;;;;;5.17;4.80;;;26.20;1.00;;;;;;4997167;28;20443;-74
2023/07/06 12:59:05;;;;;;;5.03;4.67;;;26.30;1.00;;;;;;4996609;28;20211;-74
2023/07/06 13:01:35;;;;;;;6.83;6.30;;;26.40;1.00;;;;;;5003187;28;20415;-73
2023/07/06 13:04:08;;;;;;;5.10;4.67;;;26.30;1.00;;;;;;4995992;28;20459;-73
2023/07/06 13:06:44;;;;;;;4.50;4.20;;;26.20;1.00;;;;;;4998364;28;20416;-73
2023/07/06 13:09:21;;;;;;;5.77;5.27;;;26.20;1.00;;;;;;4998254;28;20396;-72
2023/07/06 13:11:48;;;;;;;6.23;5.67;;;26.10;1.00;;;;;;4997754;28;20743;-73
2023/07/06 13:14:17;;;;;;;5.37;4.97;;;26.30;1.00;;;;;;4997475;28;20457;-73
2023/07/06 13:16:44;;;;;;;6.10;5.57;;;26.40;1.00;;;;;;4997431;28;20911;-72